Time;durP1;ratioP1;P1;durP2;ratioP2;P2;SDS_P1;SDS_P2;PMS_P1;PMS_P2;Temp;Humidity;BMP_temperature;BMP_pressure;BME280_temperature;BME280_humidity;BME280_pressure;Samples;Min_cycle;Max_cycle;Signal;HPM_P1;HPM_P2
2021/05/02 00:01:30;;;;;;;65.87;43.98;;;;;;;7.78;79.71;99420.76;2090461;83;21209;-68
2021/05/02 00:04:31;;;;;;;63.28;42.53;;;;;;;7.74;79.55;99389.55;2084065;83;21612;-68
2021/05/02 00:07:33;;;;;;;65.83;44.67;;;;;;;7.73;79.87;99394.52;2088151;83;21189;-69
2021/05/02 00:10:35;;;;;;;66.82;45.33;;;;;;;7.71;80.12;99385.92;2086280;83;21708;-68
2021/05/02 00:13:39;;;;;;;66.15;45.03;;;;;;;7.68;79.75;99375.70;2085768;83;21156;-68
2021/05/02 00:16:42;;;;;;;60.43;40.95;;;;;;;7.69;80.12;99378.69;2086882;83;21333;-68
2021/05/02 00:19:44;;;;;;;64.07;43.00;;;;;;;7.68;80.03;99379.16;2084934;83;21174;-68
2021/05/02 00:22:51;;;;;;;62.98;43.02;;;;;;;7.68;80.06;99380.98;2091896;83;21569;-68
2021/05/02 00:25:53;;;;;;;65.90;44.10;;;;;;;7.70;79.86;99383.78;2085664;83;21165;-69
2021/05/02 00:28:55;;;;;;;61.58;41.80;;;;;;;7.71;80.09;99381.97;2092315;83;21666;-69
2021/05/02 00:32:00;;;;;;;59.08;39.13;;;;;;;7.71;80.03;99385.92;2085876;83;21177;-68
2021/05/02 00:35:02;;;;;;;60.03;42.65;;;;;;;7.71;80.38;99391.20;2064461;83;21186;-69
2021/05/02 00:38:04;;;;;;;56.53;40.78;;;;;;;7.71;80.34;99380.14;2091162;83;21248;-68
2021/05/02 00:41:13;;;;;;;58.73;40.28;;;;;;;7.70;80.17;99372.41;2086095;83;21172;-68
2021/05/02 00:44:47;;;;;;;61.60;44.10;;;;;;;7.72;80.53;99371.75;2089909;83;21184;-68
2021/05/02 00:47:52;;;;;;;59.25;41.15;;;;;;;7.72;80.37;99362.01;2086382;83;21190;-70
2021/05/02 00:51:01;;;;;;;58.92;41.48;;;;;;;7.76;80.60;99361.98;2087432;83;21621;-70
2021/05/02 00:54:15;;;;;;;57.67;39.42;;;;;;;7.77;80.41;99350.45;2090165;83;21157;-69
2021/05/02 00:57:30;;;;;;;61.42;41.68;;;;;;;7.77;80.90;99327.16;2088724;83;21589;-68
2021/05/02 01:01:43;;;;;;;59.30;40.92;;;;;;;7.75;80.50;99329.16;2091972;83;21621;-69
2021/05/02 01:04:46;;;;;;;54.85;37.55;;;;;;;7.76;80.70;99337.41;2083718;83;21157;-69
2021/05/02 01:07:52;;;;;;;56.08;39.95;;;;;;;7.79;81.05;99334.42;2090290;83;21121;-69
2021/05/02 01:10:58;;;;;;;49.53;34.18;;;;;;;7.79;80.66;99320.72;2085470;83;21158;-68
2021/05/02 01:14:00;;;;;;;54.70;38.48;;;;;;;7.77;80.84;99313.48;2085578;83;21169;-69
2021/05/02 01:17:05;;;;;;;56.58;40.28;;;;;;;7.76;80.75;99309.67;2090547;83;21177;-71
2021/05/02 01:20:09;;;;;;;53.42;38.00;;;;;;;7.77;81.18;99316.59;2086785;83;21626;-69
2021/05/02 01:23:27;;;;;;;57.03;39.95;;;;;;;7.76;81.13;99310.49;2086734;83;21250;-68
2021/05/02 01:26:29;;;;;;;47.85;34.88;;;;;;;7.74;81.06;99295.34;2084775;83;21118;-69
2021/05/02 01:29:31;;;;;;;51.90;37.17;;;;;;;7.74;81.56;99291.38;2086387;83;21835;-69
2021/05/02 01:32:33;;;;;;;56.75;41.25;;;;;;;7.74;81.35;99275.53;2067820;84;21207;-69
2021/05/02 01:35:35;;;;;;;58.75;39.35;;;;;;;7.72;81.41;99266.12;2086027;83;21213;-71
2021/05/02 01:38:36;;;;;;;53.98;39.05;;;;;;;7.70;81.98;99253.08;2088115;83;21173;-69
2021/05/02 01:41:38;;;;;;;60.33;41.18;;;;;;;7.69;81.78;99228.18;2088025;83;21105;-69
2021/05/02 01:44:40;;;;;;;55.48;37.17;;;;;;;7.66;82.25;99208.69;2082660;83;21177;-68
2021/05/02 01:47:50;;;;;;;52.38;37.13;;;;;;;7.63;82.56;99205.92;2087364;83;21675;-69
2021/05/02 01:51:00;;;;;;;55.28;38.20;;;;;;;7.59;82.71;99195.36;2064659;83;21209;-71
2021/05/02 01:54:03;;;;;;;60.15;41.13;;;;;;;7.56;82.95;99192.55;2084314;83;21185;-69
2021/05/02 01:57:08;;;;;;;58.45;38.70;;;;;;;7.52;83.01;99187.80;2086191;83;21193;-70
2021/05/02 02:00:15;;;;;;;57.13;40.40;;;;;;;7.51;83.29;99180.36;2083682;83;21520;-69
2021/05/02 02:03:18;;;;;;;56.68;38.30;;;;;;;7.48;83.43;99166.18;2084351;83;21162;-68
2021/05/02 02:06:20;;;;;;;64.75;40.60;;;;;;;7.47;83.94;99155.81;2082674;83;21256;-68
2021/05/02 02:09:22;;;;;;;58.60;39.65;;;;;;;7.39;84.09;99133.71;2086964;83;21177;-71
2021/05/02 02:12:24;;;;;;;61.30;42.98;;;;;;;7.33;84.32;99133.08;2086560;83;21169;-68
2021/05/02 02:15:27;;;;;;;59.30;40.33;;;;;;;7.31;84.50;99138.20;2082494;83;21190;-68
2021/05/02 02:18:29;;;;;;;61.88;38.17;;;;;;;7.29;85.06;99144.12;2084383;83;21230;-70
2021/05/02 02:21:30;;;;;;;59.13;41.75;;;;;;;7.25;85.01;99137.56;2085857;83;21161;-68
2021/05/02 02:24:56;;;;;;;65.20;41.15;;;;;;;7.22;85.07;99126.03;2087762;83;21193;-71
2021/05/02 02:28:02;;;;;;;58.85;41.35;;;;;;;7.19;85.93;99108.22;2085033;83;21138;-68
2021/05/02 02:31:07;;;;;;;57.43;40.33;;;;;;;7.16;85.83;99092.73;2086690;83;21646;-69
2021/05/02 02:34:09;;;;;;;62.35;43.23;;;;;;;7.13;86.07;99079.88;2086692;83;21735;-71
2021/05/02 02:37:18;;;;;;;55.95;38.83;;;;;;;7.13;85.69;99073.28;2087483;83;21177;-69
2021/05/02 02:40:20;;;;;;;61.65;41.80;;;;;;;7.13;86.23;99060.59;2084435;83;21641;-69
2021/05/02 02:43:26;;;;;;;62.78;40.00;;;;;;;7.11;86.25;99056.80;2086094;83;21181;-69
2021/05/02 02:46:30;;;;;;;62.03;41.40;;;;;;;7.10;86.08;99040.66;2089455;83;21180;-68
2021/05/02 02:49:33;;;;;;;58.95;39.55;;;;;;;7.10;86.34;99032.73;2085844;83;21165;-69
2021/05/02 02:52:43;;;;;;;58.17;37.20;;;;;;;7.09;86.73;99009.97;2089274;83;22392;-69
2021/05/02 02:56:07;;;;;;;60.90;42.20;;;;;;;7.08;86.90;98991.19;2088015;83;21184;-68
2021/05/02 02:59:29;;;;;;;66.65;44.27;;;;;;;7.03;86.88;98979.01;2102661;82;21751;-68
2021/05/02 03:02:31;;;;;;;60.92;39.40;;;;;;;7.02;87.17;98977.38;2077436;84;21536;-68
2021/05/02 03:05:35;;;;;;;60.10;40.10;;;;;;;7.02;87.66;98983.97;2131431;81;21170;-68
2021/05/02 03:08:40;;;;;;;62.05;43.13;;;;;;;7.02;87.88;98987.92;2134106;81;21097;-68
2021/05/02 03:11:43;;;;;;;59.48;40.35;;;;;;;7.02;87.66;99002.44;2135514;81;21173;-68
2021/05/02 03:14:48;;;;;;;60.40;39.40;;;;;;;7.05;87.35;99006.05;2131937;81;21169;-69
2021/05/02 03:18:03;;;;;;;60.92;40.85;;;;;;;7.07;87.96;99000.61;2131299;81;21099;-69
2021/05/02 03:21:08;;;;;;;55.55;36.63;;;;;;;7.06;87.82;98997.13;2135597;81;21149;-68
2021/05/02 03:24:13;;;;;;;52.58;35.70;;;;;;;7.06;87.95;98997.13;2128845;81;21217;-69
2021/05/02 03:27:23;;;;;;;53.35;36.13;;;;;;;7.07;87.84;98990.88;2134785;81;21185;-71
2021/05/02 03:30:26;;;;;;;52.85;35.25;;;;;;;7.08;87.72;98991.19;2128190;81;21157;-68
2021/05/02 03:33:41;;;;;;;51.30;35.55;;;;;;;7.11;87.92;98993.48;2135354;81;21177;-69
2021/05/02 03:36:46;;;;;;;50.95;34.90;;;;;;;7.09;87.73;98996.78;2107125;82;21183;-68
2021/05/02 03:39:49;;;;;;;53.70;36.90;;;;;;;7.11;87.80;98986.07;2133664;81;21506;-68
2021/05/02 03:42:51;;;;;;;49.03;33.02;;;;;;;7.12;87.59;98985.06;2138075;81;21786;-68
2021/05/02 03:45:53;;;;;;;46.70;31.97;;;;;;;7.13;87.49;98974.36;2111558;83;21203;-68
2021/05/02 03:49:01;;;;;;;45.98;31.27;;;;;;;7.15;87.45;98980.77;2130520;81;22299;-68
2021/05/02 03:52:04;;;;;;;44.33;30.70;;;;;;;7.16;87.71;98975.83;2132537;81;21159;-68
2021/05/02 03:55:07;;;;;;;43.15;30.30;;;;;;;7.16;87.61;98978.47;2135154;81;21218;-68
2021/05/02 03:58:15;;;;;;;43.33;30.85;;;;;;;7.17;87.75;98962.95;2133867;81;22494;-68
2021/05/02 04:01:16;;;;;;;42.05;28.83;;;;;;;7.16;87.76;98952.91;2139067;81;21169;-69
2021/05/02 04:04:21;;;;;;;45.80;29.77;;;;;;;7.15;87.92;98943.36;2134566;81;21224;-68
2021/05/02 04:07:23;;;;;;;43.90;29.27;;;;;;;7.14;88.14;98932.47;2134654;81;21134;-67
2021/05/02 04:10:25;;;;;;;42.25;29.55;;;;;;;7.13;88.16;98924.23;2138471;81;22141;-72
2021/05/02 04:13:26;;;;;;;44.15;30.68;;;;;;;7.10;88.28;98903.98;2144835;81;21191;-68
2021/05/02 04:16:28;;;;;;;44.77;30.17;;;;;;;7.09;88.35;98892.59;2141906;81;21141;-69
2021/05/02 04:19:32;;;;;;;41.30;27.30;;;;;;;7.12;88.40;98891.42;2138411;81;21225;-68
2021/05/02 04:22:34;;;;;;;43.78;30.12;;;;;;;7.14;88.53;98888.94;2132637;81;21652;-70
2021/05/02 04:25:35;;;;;;;44.05;28.83;;;;;;;7.16;88.38;98897.50;2137105;81;21177;-68
2021/05/02 04:28:37;;;;;;;41.50;28.87;;;;;;;7.19;88.31;98909.53;2139861;81;21181;-68
2021/05/02 04:31:38;;;;;;;41.28;28.87;;;;;;;7.26;87.86;98921.02;2137101;81;21142;-68
2021/05/02 04:34:40;;;;;;;41.25;27.77;;;;;;;7.34;87.77;98937.30;2136774;81;21216;-69
2021/05/02 04:37:42;;;;;;;41.85;29.10;;;;;;;7.40;87.35;98945.36;2136240;81;21205;-68
2021/05/02 04:40:43;;;;;;;41.02;29.82;;;;;;;7.48;87.11;98947.09;2139981;81;21167;-69
2021/05/02 04:43:45;;;;;;;39.78;27.30;;;;;;;7.58;86.96;98941.10;2136623;81;21163;-69
2021/05/02 04:46:47;;;;;;;41.08;28.77;;;;;;;7.67;86.78;98935.26;2140291;81;21178;-68
2021/05/02 04:49:49;;;;;;;41.25;28.67;;;;;;;7.73;86.63;98938.51;2137168;81;21122;-69
2021/05/02 04:52:50;;;;;;;45.98;31.15;;;;;;;7.77;86.42;98953.02;2135970;81;21166;-69
2021/05/02 04:55:52;;;;;;;34.25;25.15;;;;;;;7.78;86.30;98965.20;2143759;81;21236;-74
2021/05/02 04:58:53;;;;;;;39.03;25.45;;;;;;;7.75;86.23;98958.97;2125590;81;21154;-69
2021/05/02 05:01:55;;;;;;;38.13;25.68;;;;;;;7.76;86.23;98951.86;2124540;81;21281;-70
2021/05/02 05:04:57;;;;;;;34.13;23.87;;;;;;;7.71;86.17;98947.60;2126971;81;21153;-69
2021/05/02 05:07:58;;;;;;;31.12;22.52;;;;;;;7.69;86.23;98939.88;2123000;81;21137;-68
2021/05/02 05:11:00;;;;;;;29.57;20.50;;;;;;;7.69;86.25;98928.50;2153217;80;21543;-70
2021/05/02 05:14:02;;;;;;;38.88;21.48;;;;;;;7.64;86.46;98921.91;2155123;80;22377;-68
2021/05/02 05:17:03;;;;;;;30.17;19.62;;;;;;;7.61;86.40;98918.30;2158184;80;21201;-68
2021/05/02 05:20:07;;;;;;;25.25;16.90;;;;;;;7.57;86.59;98915.71;2154965;80;21164;-70
2021/05/02 05:23:09;;;;;;;24.02;17.05;;;;;;;7.55;86.74;98911.10;2155123;80;21176;-71
2021/05/02 05:26:10;;;;;;;23.40;15.65;;;;;;;7.51;86.61;98906.34;2155556;80;21152;-71
2021/05/02 05:29:12;;;;;;;18.98;14.40;;;;;;;7.44;86.52;98901.45;2158691;80;21168;-69
2021/05/02 05:32:14;;;;;;;17.55;13.43;;;;;;;7.45;86.52;98905.73;2162456;80;21168;-68
2021/05/02 05:35:15;;;;;;;18.42;13.00;;;;;;;7.42;86.55;98913.50;2164045;80;21165;-69
2021/05/02 05:38:18;;;;;;;18.95;13.20;;;;;;;7.43;86.62;98910.36;2154847;80;21146;-70
2021/05/02 05:41:20;;;;;;;18.85;12.95;;;;;;;7.41;86.61;98898.17;2161986;80;21178;-69
2021/05/02 05:44:21;;;;;;;15.53;12.78;;;;;;;7.36;86.70;98879.90;2155943;80;21182;-70
2021/05/02 05:47:24;;;;;;;15.63;11.78;;;;;;;7.34;86.75;98858.13;2157383;80;21176;-69
2021/05/02 05:50:28;;;;;;;14.53;10.63;;;;;;;7.29;86.79;98819.58;2164766;80;21128;-69
2021/05/02 05:53:29;;;;;;;14.60;11.28;;;;;;;7.24;86.98;98788.47;2156515;80;21175;-69
2021/05/02 05:56:31;;;;;;;16.40;10.98;;;;;;;7.19;87.19;98767.89;2155655;80;21100;-68
2021/05/02 05:59:33;;;;;;;13.15;10.08;;;;;;;7.16;87.09;98760.83;2122570;81;21182;-69
2021/05/02 06:02:34;;;;;;;13.22;9.53;;;;;;;7.16;87.09;98745.01;2101499;83;21158;-69
2021/05/02 06:05:36;;;;;;;11.18;8.80;;;;;;;7.16;87.06;98733.13;2095055;83;21153;-69
2021/05/02 06:08:38;;;;;;;11.38;8.50;;;;;;;7.14;87.12;98738.58;2090838;83;21180;-69
2021/05/02 06:11:40;;;;;;;10.15;8.10;;;;;;;7.14;87.23;98731.98;2094806;83;21540;-69
2021/05/02 06:14:42;;;;;;;9.33;7.55;;;;;;;7.14;86.97;98735.94;2089520;83;21172;-69
2021/05/02 06:17:43;;;;;;;10.00;7.15;;;;;;;7.17;87.05;98746.13;2088539;83;22312;-69
2021/05/02 06:20:45;;;;;;;9.25;7.50;;;;;;;7.16;86.99;98751.09;2090162;83;21181;-72
2021/05/02 06:23:48;;;;;;;9.13;7.30;;;;;;;7.14;87.09;98741.72;2091727;83;21220;-69
2021/05/02 06:26:50;;;;;;;8.70;7.53;;;;;;;7.13;87.12;98738.27;2087530;83;21187;-68
2021/05/02 06:29:52;;;;;;;10.55;7.40;;;;;;;7.09;86.81;98727.73;2083783;83;21191;-69
2021/05/02 06:32:53;;;;;;;8.68;7.78;;;;;;;7.06;86.94;98729.91;2088988;83;22281;-73
2021/05/02 06:35:55;;;;;;;11.18;8.58;;;;;;;7.03;87.00;98731.09;2087078;83;21117;-70
2021/05/02 06:38:57;;;;;;;16.00;9.68;;;;;;;7.03;86.98;98723.17;2074380;84;21155;-72
2021/05/02 06:41:59;;;;;;;10.40;8.90;;;;;;;7.03;87.07;98723.17;2093655;83;21201;-74
2021/05/02 06:45:01;;;;;;;9.10;6.95;;;;;;;7.03;87.09;98711.30;2087898;83;21165;-70
2021/05/02 06:48:03;;;;;;;12.88;8.00;;;;;;;7.04;87.23;98712.13;2091075;83;21211;-70
2021/05/02 06:51:04;;;;;;;10.20;7.55;;;;;;;7.03;87.01;98717.90;2091003;83;21175;-72
2021/05/02 06:54:07;;;;;;;9.65;7.22;;;;;;;7.07;87.19;98727.11;2092870;83;21180;-71
2021/05/02 06:57:09;;;;;;;8.50;7.17;;;;;;;7.11;87.08;98727.06;2089970;83;21647;-73
2021/05/02 07:00:12;;;;;;;11.65;6.95;;;;;;;7.13;86.84;98729.03;2085855;84;21207;-74
2021/05/02 07:03:15;;;;;;;8.50;6.97;;;;;;;7.13;87.00;98726.90;2085782;84;21613;-68
2021/05/02 07:06:16;;;;;;;9.98;6.55;;;;;;;7.10;87.27;98724.11;2096346;83;21573;-71
2021/05/02 07:09:18;;;;;;;7.30;6.40;;;;;;;7.12;87.03;98716.01;2094114;83;21137;-69
2021/05/02 07:12:21;;;;;;;9.43;6.60;;;;;;;7.13;86.87;98717.16;2080242;84;21223;-72
2021/05/02 07:15:22;;;;;;;8.83;6.22;;;;;;;7.14;86.76;98720.11;2081411;83;21203;-71
2021/05/02 07:18:25;;;;;;;8.03;5.85;;;;;;;7.16;86.92;98720.76;2089065;83;21134;-71
2021/05/02 07:21:27;;;;;;;8.20;6.22;;;;;;;7.16;86.62;98722.58;2069440;83;21335;-73
2021/05/02 07:24:29;;;;;;;6.80;5.55;;;;;;;7.14;86.62;98712.20;2109841;82;21166;-72
2021/05/02 07:27:31;;;;;;;9.68;6.25;;;;;;;7.14;86.92;98714.84;2081199;84;21672;-70
2021/05/02 07:30:32;;;;;;;12.18;7.10;;;;;;;7.12;86.89;98719.49;2088957;83;22053;-73
2021/05/02 07:33:34;;;;;;;12.93;7.72;;;;;;;7.12;86.56;98712.05;2092544;83;22432;-71
2021/05/02 07:36:35;;;;;;;10.63;6.58;;;;;;;7.12;86.60;98719.97;2094046;84;21204;-72
2021/05/02 07:39:40;;;;;;;11.75;5.37;;;;;;;7.12;86.65;98728.72;2091223;83;21375;-70
2021/05/02 07:42:42;;;;;;;9.13;5.70;;;;;;;7.12;86.65;98722.13;2093350;83;21197;-69
2021/05/02 07:45:43;;;;;;;6.78;4.85;;;;;;;7.10;86.60;98714.88;2093436;83;21197;-72
2021/05/02 07:48:45;;;;;;;8.25;5.15;;;;;;;7.10;86.59;98715.39;2059322;83;21184;-72
2021/05/02 07:51:46;;;;;;;7.65;5.05;;;;;;;7.09;86.57;98709.77;2087050;83;21600;-73
2021/05/02 07:54:47;;;;;;;10.72;5.03;;;;;;;7.07;86.65;98701.24;2089558;83;21636;-73
2021/05/02 07:57:49;;;;;;;6.37;4.35;;;;;;;7.07;86.78;98704.70;2089239;83;21643;-71
2021/05/02 08:00:50;;;;;;;9.45;5.22;;;;;;;7.08;86.88;98700.23;2090724;83;22149;-70
2021/05/02 08:03:52;;;;;;;6.97;4.62;;;;;;;7.10;86.72;98703.52;2092624;83;21219;-74
2021/05/02 08:06:53;;;;;;;7.42;4.58;;;;;;;7.10;86.94;98689.02;2091980;83;21188;-70
2021/05/02 08:09:54;;;;;;;10.45;4.95;;;;;;;7.12;86.91;98690.48;2111792;83;21605;-71
2021/05/02 08:12:57;;;;;;;5.42;3.85;;;;;;;7.14;86.92;98691.09;2095034;83;21203;-72
2021/05/02 08:15:58;;;;;;;6.67;4.75;;;;;;;7.15;87.05;98680.04;2093668;83;21726;-73
2021/05/02 08:19:01;;;;;;;8.58;4.97;;;;;;;7.17;86.89;98680.69;2078459;84;21188;-72
2021/05/02 08:22:03;;;;;;;5.45;4.55;;;;;;;7.19;86.98;98684.78;2091174;83;22391;-69
2021/05/02 08:25:06;;;;;;;5.58;4.17;;;;;;;7.21;86.75;98691.69;2108796;83;21199;-73
2021/05/02 08:28:08;;;;;;;5.45;3.90;;;;;;;7.20;86.71;98690.87;2083405;84;21209;-71
2021/05/02 08:31:12;;;;;;;3.98;3.33;;;;;;;7.23;86.87;98681.78;2092966;83;21331;-72
2021/05/02 08:34:13;;;;;;;4.30;3.45;;;;;;;7.25;86.62;98689.03;2108477;83;21179;-68
2021/05/02 08:37:15;;;;;;;4.50;3.30;;;;;;;7.25;86.58;98689.03;2082701;84;21208;-72
2021/05/02 08:40:16;;;;;;;4.40;3.58;;;;;;;7.27;86.38;98697.59;2081653;84;21076;-69
2021/05/02 08:43:18;;;;;;;5.10;3.52;;;;;;;7.27;86.40;98697.59;2085869;84;21183;-70
2021/05/02 08:46:21;;;;;;;4.33;3.80;;;;;;;7.25;86.25;98696.94;2080955;84;21618;-70
2021/05/02 08:49:22;;;;;;;4.45;3.60;;;;;;;7.25;86.28;98696.44;2082710;84;21178;-69
2021/05/02 08:52:24;;;;;;;6.00;4.45;;;;;;;7.25;86.29;98695.12;2111157;82;21198;-70
2021/05/02 08:55:25;;;;;;;5.58;3.80;;;;;;;7.26;86.21;98695.42;2110190;83;21175;-69
2021/05/02 08:58:27;;;;;;;4.00;3.60;;;;;;;7.29;86.12;98696.41;2102123;82;21580;-69
2021/05/02 09:01:31;;;;;;;4.83;3.98;;;;;;;7.29;86.00;98708.77;2096467;83;21190;-71
2021/05/02 09:04:33;;;;;;;4.08;3.62;;;;;;;7.31;86.01;98706.27;2136339;81;21190;-70
2021/05/02 09:07:43;;;;;;;6.37;4.55;;;;;;;7.33;85.81;98719.30;2131249;81;21246;-70
2021/05/02 09:10:49;;;;;;;3.93;3.53;;;;;;;7.33;85.71;98728.02;2122392;82;21178;-70
2021/05/02 09:13:53;;;;;;;5.35;4.15;;;;;;;7.35;85.70;98727.35;2132643;81;21604;-74
2021/05/02 09:16:57;;;;;;;3.67;3.27;;;;;;;7.37;85.74;98729.29;2140208;81;21118;-71
2021/05/02 09:20:01;;;;;;;3.55;3.25;;;;;;;7.37;85.60;98730.61;2140457;81;21174;-70
2021/05/02 09:23:04;;;;;;;3.85;3.35;;;;;;;7.35;85.58;98729.98;2141516;81;21697;-70
2021/05/02 09:26:10;;;;;;;7.33;3.15;;;;;;;7.35;85.60;98735.27;2136759;81;21177;-69
2021/05/02 09:29:12;;;;;;;4.10;3.22;;;;;;;7.33;85.65;98743.86;2141494;81;21197;-70
2021/05/02 09:32:15;;;;;;;5.05;3.85;;;;;;;7.33;85.60;98753.09;2140841;81;21224;-70
2021/05/02 09:35:31;;;;;;;3.85;3.10;;;;;;;7.31;85.58;98758.22;2138117;81;22597;-69
2021/05/02 09:38:34;;;;;;;4.85;3.75;;;;;;;7.32;85.57;98762.48;2136318;81;21222;-69
2021/05/02 09:41:39;;;;;;;7.00;3.80;;;;;;;7.32;85.43;98772.57;2134284;81;21541;-70
2021/05/02 09:44:49;;;;;;;4.03;3.45;;;;;;;7.31;85.44;98776.19;2136518;81;21157;-70
2021/05/02 09:47:53;;;;;;;5.08;3.65;;;;;;;7.27;85.42;98779.38;2136205;81;21421;-70
2021/05/02 09:51:00;;;;;;;5.42;3.92;;;;;;;7.24;85.41;98777.10;2139809;81;21198;-67
2021/05/02 09:54:21;;;;;;;9.75;6.00;;;;;;;7.18;85.52;98784.72;2136920;81;21155;-73
2021/05/02 09:57:26;;;;;;;6.15;4.80;;;;;;;7.15;85.55;98790.83;2138186;81;21181;-69
2021/05/02 10:00:32;;;;;;;4.92;3.65;;;;;;;7.17;85.75;98811.27;2136396;81;21090;-70
2021/05/02 10:03:38;;;;;;;4.83;3.52;;;;;;;7.16;85.79;98817.55;2140666;81;21267;-68
2021/05/02 10:06:37;;;;;;;5.70;3.77;;;;;;;7.14;85.90;98816.39;2140807;81;21181;-68
2021/05/02 10:09:40;;;;;;;6.83;4.65;;;;;;;7.14;85.95;98820.34;2136775;81;21205;-69
2021/05/02 10:12:52;;;;;;;7.47;5.03;;;;;;;7.15;86.01;98823.80;2140594;81;21189;-69
2021/05/02 10:15:55;;;;;;;7.20;4.45;;;;;;;7.15;86.10;98825.97;2135935;81;21657;-70
2021/05/02 10:18:59;;;;;;;5.92;4.15;;;;;;;7.15;86.19;98819.84;2143470;81;21193;-73
2021/05/02 10:22:01;;;;;;;6.30;3.83;;;;;;;7.11;85.99;98828.62;2134761;81;21534;-72
2021/05/02 10:25:04;;;;;;;4.65;3.67;;;;;;;7.15;86.18;98828.61;2139874;81;21594;-77
2021/05/02 10:28:06;;;;;;;9.13;4.12;;;;;;;7.18;86.25;98833.53;2136269;81;21713;-73
2021/05/02 10:31:10;;;;;;;5.03;3.50;;;;;;;7.20;86.13;98847.84;2141685;81;21205;-72
2021/05/02 10:34:33;;;;;;;4.28;2.80;;;;;;;7.19;86.01;98838.30;2138755;81;21217;-74
2021/05/02 10:37:36;;;;;;;3.80;3.25;;;;;;;7.19;85.83;98854.12;2140314;81;21644;-72
2021/05/02 10:40:39;;;;;;;4.70;3.22;;;;;;;7.18;85.82;98860.41;2136098;81;21181;-76
2021/05/02 10:43:41;;;;;;;5.17;3.00;;;;;;;7.10;85.67;98873.66;2142797;81;21922;-74
2021/05/02 10:46:52;;;;;;;4.25;3.08;;;;;;;7.09;85.79;98884.67;2141784;81;21169;-74
2021/05/02 10:49:55;;;;;;;4.65;3.22;;;;;;;7.09;85.94;98900.50;2141079;81;21190;-74
2021/05/02 10:53:20;;;;;;;5.15;3.55;;;;;;;7.12;85.93;98910.73;2140820;81;21165;-75
2021/05/02 10:56:27;;;;;;;5.40;3.90;;;;;;;7.16;85.76;98919.93;2136541;81;21176;-74
2021/05/02 11:00:06;;;;;;;6.25;3.47;;;;;;;7.26;85.84;98940.80;2130770;82;21172;-74
2021/05/02 11:03:07;;;;;;;5.65;3.72;;;;;;;7.29;85.53;98948.39;2142013;81;21175;-73
2021/05/02 11:06:37;;;;;;;6.05;3.75;;;;;;;7.32;85.41;98954.64;2149190;81;21175;-73
2021/05/02 11:09:55;;;;;;;3.40;2.80;;;;;;;7.38;85.43;98957.08;2148638;81;21165;-77
2021/05/02 11:12:58;;;;;;;5.05;3.27;;;;;;;7.47;85.33;98947.30;2146085;81;21162;-75
2021/05/02 11:16:23;;;;;;;3.20;2.62;;;;;;;7.46;84.87;98954.39;2148513;81;21176;-74
2021/05/02 11:19:36;;;;;;;3.95;3.12;;;;;;;7.40;84.74;98974.39;2147091;81;21628;-73
2021/05/02 11:22:47;;;;;;;3.60;2.60;;;;;;;7.49;84.97;98981.76;2150002;81;21225;-72
2021/05/02 11:25:55;;;;;;;;;;;;;;;7.59;84.84;98988.93;2151664;81;21151;-71
2021/05/02 11:29:04;;;;;;;3.90;2.37;;;;;;;7.71;84.21;98985.38;2142694;81;20202;-74
2021/05/02 11:32:03;;;;;;;3.42;2.58;;;;;;;7.72;83.73;98990.19;2145406;81;21201;-73
2021/05/02 11:35:11;;;;;;;3.42;2.20;;;;;;;7.66;83.75;98996.14;2147000;81;21183;-73
2021/05/02 11:38:17;;;;;;;4.00;2.45;;;;;;;7.70;83.82;98998.77;2149122;81;21152;-72
2021/05/02 11:41:20;;;;;;;4.37;2.83;;;;;;;7.78;83.90;99006.64;2148728;81;22267;-72
2021/05/02 11:44:22;;;;;;;3.02;2.20;;;;;;;7.71;82.77;99010.47;2148832;81;21176;-72
2021/05/02 11:47:25;;;;;;;4.95;2.60;;;;;;;7.66;82.97;99022.55;2146827;81;21142;-73
2021/05/02 11:50:26;;;;;;;2.90;2.00;;;;;;;7.62;82.87;99033.45;2124862;81;21159;-73
2021/05/02 11:53:38;;;;;;;3.30;2.30;;;;;;;7.63;82.51;99039.08;2144848;81;21178;-76
2021/05/02 11:56:41;;;;;;;3.00;2.37;;;;;;;7.64;82.66;99040.72;2146165;81;21221;-75
2021/05/02 11:59:51;;;;;;;1.95;1.62;;;;;;;7.60;82.48;99047.83;2138011;81;21672;-76
2021/05/02 12:02:53;;;;;;;1.52;1.42;;;;;;;7.60;82.29;99051.31;2135943;81;21184;-78
2021/05/02 12:05:58;;;;;;;2.33;1.70;;;;;;;7.61;82.22;99056.91;2140779;81;21754;-76
2021/05/02 12:09:03;;;;;;;2.20;1.80;;;;;;;7.61;82.47;99060.87;2141085;81;21188;-79
2021/05/02 12:12:06;;;;;;;1.77;1.67;;;;;;;7.57;82.37;99077.22;2137657;81;21195;-78
2021/05/02 12:15:10;;;;;;;3.37;2.20;;;;;;;7.53;82.58;99085.98;2138725;81;21194;-76
2021/05/02 12:18:11;;;;;;;2.37;1.52;;;;;;;7.48;82.38;99102.02;2135844;81;21593;-76
2021/05/02 12:21:36;;;;;;;2.00;1.62;;;;;;;7.36;81.67;99099.75;2135704;81;21178;-77
2021/05/02 12:24:37;;;;;;;2.15;1.67;;;;;;;7.28;82.43;99115.61;2115861;81;21208;-76
2021/05/02 12:27:39;;;;;;;1.98;1.80;;;;;;;7.17;82.28;99112.83;2136148;81;21177;-74
2021/05/02 12:30:41;;;;;;;2.27;1.82;;;;;;;7.04;81.73;99131.02;2125220;81;21201;-75
2021/05/02 12:33:43;;;;;;;3.27;1.72;;;;;;;6.95;82.03;99143.88;2136288;81;21930;-75
2021/05/02 12:36:44;;;;;;;2.37;2.15;;;;;;;6.88;82.16;99156.09;2141314;81;21226;-75
2021/05/02 12:39:52;;;;;;;2.83;1.90;;;;;;;6.83;82.26;99164.98;2144464;81;21498;-75
2021/05/02 12:42:53;;;;;;;2.00;1.80;;;;;;;6.77;82.24;99173.56;2139387;81;21177;-75
2021/05/02 12:45:55;;;;;;;2.17;1.60;;;;;;;6.72;82.49;99175.38;2137970;81;21446;-78
2021/05/02 12:49:14;;;;;;;1.60;1.50;;;;;;;6.66;82.23;99184.77;2136902;81;21141;-75
2021/05/02 12:52:16;;;;;;;2.45;1.50;;;;;;;6.62;82.23;99203.23;2136445;81;21148;-76
2021/05/02 12:55:35;;;;;;;1.62;1.30;;;;;;;6.61;82.31;99216.05;2123850;81;21715;-80
2021/05/02 12:58:42;;;;;;;3.08;1.30;;;;;;;6.64;82.38;99231.55;2136576;81;21205;-77
2021/05/02 13:01:49;;;;;;;1.45;1.35;;;;;;;6.70;82.04;99233.55;2135506;81;21175;-77
2021/05/02 13:05:00;;;;;;;1.40;1.30;;;;;;;6.77;81.77;99234.21;2133561;81;21213;-75
2021/05/02 13:08:07;;;;;;;1.27;1.12;;;;;;;6.86;81.75;99242.45;2140286;81;21157;-76
2021/05/02 13:11:30;;;;;;;1.37;1.00;;;;;;;6.92;80.99;99235.19;2137384;81;21170;-76
2021/05/02 13:14:32;;;;;;;1.32;1.17;;;;;;;6.95;80.77;99242.77;2124040;82;21176;-78
2021/05/02 13:17:34;;;;;;;1.10;1.10;;;;;;;6.99;81.10;99262.57;2142146;81;21581;-76
2021/05/02 13:21:01;;;;;;;1.55;1.17;;;;;;;6.99;80.48;99255.98;2135967;81;21660;-79
2021/05/02 13:24:09;;;;;;;1.32;1.20;;;;;;;6.98;80.85;99284.64;2141866;81;21165;-76
2021/05/02 13:27:10;;;;;;;1.95;1.40;;;;;;;7.01;80.98;99292.25;2140283;81;21153;-77
2021/05/02 13:30:34;;;;;;;2.98;1.87;;;;;;;7.05;80.97;99294.88;2143542;81;21206;-77
2021/05/02 13:33:39;;;;;;;2.72;1.90;;;;;;;7.05;81.17;99308.07;2139738;81;21157;-75
2021/05/02 13:36:44;;;;;;;3.20;1.90;;;;;;;6.98;81.30;99316.29;2139287;81;21603;-75
2021/05/02 13:39:46;;;;;;;2.17;1.62;;;;;;;6.89;81.69;99321.23;2137966;81;21202;-77
2021/05/02 13:42:47;;;;;;;3.02;1.92;;;;;;;6.80;81.70;99334.08;2140803;81;22303;-79
2021/05/02 13:45:49;;;;;;;2.42;1.92;;;;;;;6.76;81.91;99338.86;2140355;81;21178;-80
2021/05/02 13:48:50;;;;;;;3.02;2.35;;;;;;;6.71;82.00;99333.23;2134425;81;21547;-79
2021/05/02 13:51:52;;;;;;;4.33;1.90;;;;;;;6.81;82.35;99344.95;2142738;81;21177;-81
2021/05/02 13:54:57;;;;;;;3.65;2.10;;;;;;;6.96;82.50;99349.94;2133072;81;21177;-74
2021/05/02 13:57:56;;;;;;;2.40;1.82;;;;;;;7.04;82.28;99365.78;2141601;81;21675;-74
2021/05/02 14:00:58;;;;;;;2.77;1.72;;;;;;;7.08;81.97;99367.09;2139420;81;21210;-76
2021/05/02 14:04:00;;;;;;;2.12;1.70;;;;;;;7.06;81.32;99379.61;2136430;81;21208;-74
2021/05/02 14:07:03;;;;;;;3.37;1.77;;;;;;;7.02;81.44;99365.11;2138515;81;21179;-75
2021/05/02 14:10:08;;;;;;;3.40;1.77;;;;;;;6.95;81.28;99390.47;2135270;81;21584;-75
2021/05/02 14:13:10;;;;;;;2.30;1.75;;;;;;;6.89;81.54;99401.67;2141885;81;22311;-73
2021/05/02 14:16:12;;;;;;;2.67;1.62;;;;;;;6.82;81.62;99403.31;2136107;81;21847;-72
2021/05/02 14:19:14;;;;;;;3.55;2.12;;;;;;;6.80;81.39;99417.14;2115905;81;21541;-73
2021/05/02 14:22:16;;;;;;;3.20;2.37;;;;;;;6.76;81.35;99429.82;2137039;81;21307;-73
2021/05/02 14:25:17;;;;;;;2.08;1.70;;;;;;;6.72;81.42;99435.88;2142661;81;21218;-72
2021/05/02 14:28:20;;;;;;;1.70;1.60;;;;;;;6.70;81.25;99443.15;2138968;81;21196;-74
2021/05/02 14:31:22;;;;;;;2.55;2.02;;;;;;;6.66;80.99;99451.02;2140842;81;21173;-71